New Haven, Wyoming
Current Conditions -  °F | °C
As of 10:15 AM on Sunday 23 Nov 2014 (Local Time) from KSPF Reporting Station
Unknown Precip Unknown Precip  
Wind Chill: 23°   Ceiling: Unl
Heat Index: 36°   Visibility: 10mi
Dew Point: 19°   Wind: 30mph
Humidity: 52%   Direction: 290°WNW
Pressure: 29.74"   Gusts: 39mph
Location:  44.835°N, 104.693°W
Report Text: KSPF 231715Z AUTO 29026G34KT 10SM UP FEW041 02/M07 A2974 RMK AO2
Loading
Personal Weather Stations






























Interactive Weather Map New forecast layout! Learn more

10-Day Weather Forecast

Advertisements
Track Severe Weather on mobile